sensor_id;sensor_type;location;lat;lon;timestamp;pressure;altitude;pressure_sealevel;temperature;humidity
64844;BME280;51310;52.198;5.422;2024-02-15T00:00:16;101476.72;;;11.61;100.00
64844;BME280;51310;52.198;5.422;2024-02-15T00:02:44;101479.31;;;11.62;100.00
64844;BME280;51310;52.198;5.422;2024-02-15T00:05:12;101477.66;;;11.60;100.00
64844;BME280;51310;52.198;5.422;2024-02-15T00:07:40;101479.38;;;11.61;100.00
64844;BME280;51310;52.198;5.422;2024-02-15T00:10:06;101463.66;;;11.55;100.00
64844;BME280;51310;52.198;5.422;2024-02-15T00:12:34;101463.41;;;11.59;100.00
64844;BME280;51310;52.198;5.422;2024-02-15T00:15:00;101475.06;;;11.58;100.00
64844;BME280;51310;52.198;5.422;2024-02-15T00:17:27;101475.00;;;11.60;100.00
64844;BME280;51310;52.198;5.422;2024-02-15T00:19:56;101468.09;;;11.56;100.00
64844;BME280;51310;52.198;5.422;2024-02-15T00:22:22;101472.59;;;11.55;100.00
64844;BME280;51310;52.198;5.422;2024-02-15T00:24:48;101473.59;;;11.53;100.00
64844;BME280;51310;52.198;5.422;2024-02-15T00:27:17;101475.41;;;11.52;100.00
64844;BME280;51310;52.198;5.422;2024-02-15T00:29:43;101456.28;;;11.44;100.00
64844;BME280;51310;52.198;5.422;2024-02-15T00:32:09;101473.78;;;11.50;100.00
64844;BME280;51310;52.198;5.422;2024-02-15T00:34:38;101478.09;;;11.52;100.00
64844;BME280;51310;52.198;5.422;2024-02-15T00:37:05;101481.81;;;11.50;100.00
64844;BME280;51310;52.198;5.422;2024-02-15T00:39:31;101475.53;;;11.51;100.00
64844;BME280;51310;52.198;5.422;2024-02-15T00:41:58;101478.19;;;11.51;100.00
64844;BME280;51310;52.198;5.422;2024-02-15T00:44:26;101471.88;;;11.52;100.00
64844;BME280;51310;52.198;5.422;2024-02-15T00:46:52;101468.44;;;11.50;100.00
64844;BME280;51310;52.198;5.422;2024-02-15T00:49:18;101468.25;;;11.53;100.00
64844;BME280;51310;52.198;5.422;2024-02-15T00:51:48;101466.72;;;11.49;100.00
64844;BME280;51310;52.198;5.422;2024-02-15T00:54:15;101468.34;;;11.51;100.00
64844;BME280;51310;52.198;5.422;2024-02-15T00:56:41;101458.06;;;11.43;100.00
64844;BME280;51310;52.198;5.422;2024-02-15T00:59:07;101464.03;;;11.49;100.00
64844;BME280;51310;52.198;5.422;2024-02-15T01:01:33;101462.28;;;11.48;100.00
64844;BME280;51310;52.198;5.422;2024-02-15T01:03:59;101457.06;;;11.46;100.00
64844;BME280;51310;52.198;5.422;2024-02-15T01:06:25;101456.34;;;11.42;100.00
64844;BME280;51310;52.198;5.422;2024-02-15T01:08:51;101450.28;;;11.39;100.00
64844;BME280;51310;52.198;5.422;2024-02-15T01:11:17;101454.44;;;11.44;100.00
64844;BME280;51310;52.198;5.422;2024-02-15T01:13:43;101458.94;;;11.44;100.00
64844;BME280;51310;52.198;5.422;2024-02-15T01:16:09;101448.31;;;11.42;100.00
64844;BME280;51310;52.198;5.422;2024-02-15T01:18:36;101450.81;;;11.45;100.00
64844;BME280;51310;52.198;5.422;2024-02-15T01:21:02;101454.25;;;11.48;100.00
64844;BME280;51310;52.198;5.422;2024-02-15T01:23:28;101457.91;;;11.46;100.00
64844;BME280;51310;52.198;5.422;2024-02-15T01:25:54;101443.91;;;11.41;100.00
64844;BME280;51310;52.198;5.422;2024-02-15T01:28:20;101445.72;;;11.41;100.00
64844;BME280;51310;52.198;5.422;2024-02-15T01:30:47;101436.13;;;11.37;100.00
64844;BME280;51310;52.198;5.422;2024-02-15T01:33:13;101442.09;;;11.42;100.00
64844;BME280;51310;52.198;5.422;2024-02-15T01:35:39;101433.31;;;11.40;100.00
64844;BME280;51310;52.198;5.422;2024-02-15T01:38:07;101449.75;;;11.48;100.00
64844;BME280;51310;52.198;5.422;2024-02-15T01:40:33;101436.84;;;11.40;100.00
64844;BME280;51310;52.198;5.422;2024-02-15T01:43:00;101430.78;;;11.37;100.00
64844;BME280;51310;52.198;5.422;2024-02-15T01:45:26;101448.31;;;11.42;100.00
64844;BME280;51310;52.198;5.422;2024-02-15T01:47:53;101446.56;;;11.41;100.00
64844;BME280;51310;52.198;5.422;2024-02-15T01:50:20;101448.41;;;11.41;100.00
64844;BME280;51310;52.198;5.422;2024-02-15T01:52:48;101447.53;;;11.40;100.00
64844;BME280;51310;52.198;5.422;2024-02-15T01:55:17;101449.25;;;11.41;100.00
64844;BME280;51310;52.198;5.422;2024-02-15T01:57:48;101442.88;;;11.44;100.00
64844;BME280;51310;52.198;5.422;2024-02-15T02:00:19;101442.19;;;11.40;100.00
64844;BME280;51310;52.198;5.422;2024-02-15T02:02:45;101443.75;;;11.44;100.00
64844;BME280;51310;52.198;5.422;2024-02-15T02:05:12;101433.19;;;11.41;100.00
64844;BME280;51310;52.198;5.422;2024-02-15T02:07:38;101412.16;;;11.35;100.00
64844;BME280;51310;52.198;5.422;2024-02-15T02:10:05;101418.88;;;11.42;100.00
64844;BME280;51310;52.198;5.422;2024-02-15T02:12:32;101417.13;;;11.41;100.00
64844;BME280;51310;52.198;5.422;2024-02-15T02:14:58;101413.72;;;11.39;100.00
64844;BME280;51310;52.198;5.422;2024-02-15T02:17:24;101418.69;;;11.45;100.00
64844;BME280;51310;52.198;5.422;2024-02-15T02:19:50;101411.72;;;11.43;100.00
64844;BME280;51310;52.198;5.422;2024-02-15T02:22:17;101415.94;;;11.47;100.00
64844;BME280;51310;52.198;5.422;2024-02-15T02:25:08;101418.53;;;11.49;100.00
64844;BME280;51310;52.198;5.422;2024-02-15T02:27:35;101415.09;;;11.46;100.00
64844;BME280;51310;52.198;5.422;2024-02-15T02:30:12;101409.03;;;11.43;100.00
64844;BME280;51310;52.198;5.422;2024-02-15T02:32:48;101400.34;;;11.39;100.00
64844;BME280;51310;52.198;5.422;2024-02-15T02:35:14;101406.28;;;11.44;100.00
64844;BME280;51310;52.198;5.422;2024-02-15T02:37:42;101405.84;;;11.36;100.00
64844;BME280;51310;52.198;5.422;2024-02-15T02:40:09;101395.06;;;11.22;100.00
64844;BME280;51310;52.198;5.422;2024-02-15T02:42:52;101406.97;;;11.16;100.00
64844;BME280;51310;52.198;5.422;2024-02-15T02:45:19;101406.38;;;11.11;100.00
64844;BME280;51310;52.198;5.422;2024-02-15T02:47:51;101404.75;;;11.09;100.00
64844;BME280;51310;52.198;5.422;2024-02-15T02:50:21;101405.25;;;10.99;100.00
64844;BME280;51310;52.198;5.422;2024-02-15T02:52:48;101403.97;;;11.07;100.00
64844;BME280;51310;52.198;5.422;2024-02-15T02:55:15;101409.56;;;11.18;100.00
64844;BME280;51310;52.198;5.422;2024-02-15T02:57:41;101405.94;;;11.19;100.00
64844;BME280;51310;52.198;5.422;2024-02-15T03:00:12;101405.78;;;11.22;100.00
64844;BME280;51310;52.198;5.422;2024-02-15T03:02:43;101410.09;;;11.24;100.00
64844;BME280;51310;52.198;5.422;2024-02-15T03:05:10;101402.06;;;11.24;100.00
64844;BME280;51310;52.198;5.422;2024-02-15T03:07:40;101404.66;;;11.26;100.00
64844;BME280;51310;52.198;5.422;2024-02-15T03:10:10;101403.69;;;11.27;100.00
64844;BME280;51310;52.198;5.422;2024-02-15T03:12:39;101389.63;;;11.23;100.00
64844;BME280;51310;52.198;5.422;2024-02-15T03:15:06;101389.03;;;11.18;100.00
64844;BME280;51310;52.198;5.422;2024-02-15T03:17:41;101404.66;;;11.26;100.00
64844;BME280;51310;52.198;5.422;2024-02-15T03:20:11;101397.41;;;11.28;100.00
64844;BME280;51310;52.198;5.422;2024-02-15T03:22:56;101389.38;;;11.28;100.00
64844;BME280;51310;52.198;5.422;2024-02-15T03:25:24;101402.66;;;11.30;100.00
64844;BME280;51310;52.198;5.422;2024-02-15T03:27:52;101392.91;;;11.29;100.00
64844;BME280;51310;52.198;5.422;2024-02-15T03:30:19;101405.44;;;11.28;100.00
64844;BME280;51310;52.198;5.422;2024-02-15T03:32:47;101406.28;;;11.29;100.00
64844;BME280;51310;52.198;5.422;2024-02-15T03:35:16;101406.38;;;11.27;100.00
64844;BME280;51310;52.198;5.422;2024-02-15T03:37:43;101406.56;;;11.24;100.00
64844;BME280;51310;52.198;5.422;2024-02-15T03:40:09;101401.19;;;11.24;100.00
64844;BME280;51310;52.198;5.422;2024-02-15T03:42:36;101389.13;;;11.17;100.00
64844;BME280;51310;52.198;5.422;2024-02-15T03:45:05;101401.09;;;11.25;100.00
64844;BME280;51310;52.198;5.422;2024-02-15T03:47:35;101396.78;;;11.23;100.00
64844;BME280;51310;52.198;5.422;2024-02-15T03:50:02;101395.34;;;11.17;100.00
64844;BME280;51310;52.198;5.422;2024-02-15T03:52:30;101387.38;;;11.16;100.00
64844;BME280;51310;52.198;5.422;2024-02-15T03:54:57;101386.47;;;11.17;100.00
64844;BME280;51310;52.198;5.422;2024-02-15T03:57:24;101402.13;;;11.23;100.00
64844;BME280;51310;52.198;5.422;2024-02-15T03:59:50;101386.28;;;11.20;100.00
64844;BME280;51310;52.198;5.422;2024-02-15T04:02:19;101389.72;;;11.22;100.00
64844;BME280;51310;52.198;5.422;2024-02-15T04:04:45;101374.19;;;11.13;100.00
64844;BME280;51310;52.198;5.422;2024-02-15T04:07:13;101393.34;;;11.21;100.00
64844;BME280;51310;52.198;5.422;2024-02-15T04:09:40;101385.81;;;11.12;100.00
64844;BME280;51310;52.198;5.422;2024-02-15T04:12:06;101390.91;;;11.16;100.00
64844;BME280;51310;52.198;5.422;2024-02-15T04:14:33;101391.88;;;11.15;100.00
64844;BME280;51310;52.198;5.422;2024-02-15T04:17:00;101388.34;;;11.15;100.00
64844;BME280;51310;52.198;5.422;2024-02-15T04:19:27;101395.34;;;11.17;100.00
64844;BME280;51310;52.198;5.422;2024-02-15T04:21:53;101389.03;;;11.18;100.00
64844;BME280;51310;52.198;5.422;2024-02-15T04:24:23;101370.56;;;11.14;100.00
64844;BME280;51310;52.198;5.422;2024-02-15T04:26:51;101369.63;;;11.15;100.00
64844;BME280;51310;52.198;5.422;2024-02-15T04:29:17;101367.72;;;11.17;100.00
64844;BME280;51310;52.198;5.422;2024-02-15T04:31:46;101372.81;;;11.21;100.00
64844;BME280;51310;52.198;5.422;2024-02-15T04:34:16;101382.09;;;11.30;100.00
64844;BME280;51310;52.198;5.422;2024-02-15T04:36:48;101386.59;;;11.30;100.00
64844;BME280;51310;52.198;5.422;2024-02-15T04:39:21;101379.41;;;11.30;100.00
64844;BME280;51310;52.198;5.422;2024-02-15T04:41:56;101385.75;;;11.29;100.00
64844;BME280;51310;52.198;5.422;2024-02-15T04:44:21;101379.53;;;11.29;100.00
64844;BME280;51310;52.198;5.422;2024-02-15T04:46:52;101377.91;;;11.26;100.00
64844;BME280;51310;52.198;5.422;2024-02-15T04:49:19;101374.19;;;11.29;100.00
64844;BME280;51310;52.198;5.422;2024-02-15T04:51:46;101375.13;;;11.28;100.00
64844;BME280;51310;52.198;5.422;2024-02-15T04:54:13;101352.34;;;11.20;100.00
64844;BME280;51310;52.198;5.422;2024-02-15T04:56:40;101371.41;;;11.30;100.00
64844;BME280;51310;52.198;5.422;2024-02-15T04:59:07;101353.03;;;11.24;100.00
64844;BME280;51310;52.198;5.422;2024-02-15T05:01:37;101365.13;;;11.31;100.00
64844;BME280;51310;52.198;5.422;2024-02-15T05:04:03;101351.72;;;11.31;100.00
64844;BME280;51310;52.198;5.422;2024-02-15T05:06:33;101359.84;;;11.30;100.00
64844;BME280;51310;52.198;5.422;2024-02-15T05:08:59;101354.50;;;11.30;100.00
64844;BME280;51310;52.198;5.422;2024-02-15T05:11:26;101358.63;;;11.35;100.00
64844;BME280;51310;52.198;5.422;2024-02-15T05:13:52;101360.53;;;11.33;100.00
64844;BME280;51310;52.198;5.422;2024-02-15T05:16:18;101351.94;;;11.28;100.00
64844;BME280;51310;52.198;5.422;2024-02-15T05:18:44;101367.44;;;11.37;100.00
64844;BME280;51310;52.198;5.422;2024-02-15T05:21:11;101351.53;;;11.34;100.00
64844;BME280;51310;52.198;5.422;2024-02-15T05:23:39;101353.44;;;11.32;100.00
64844;BME280;51310;52.198;5.422;2024-02-15T05:26:06;101352.41;;;11.35;100.00
64844;BME280;51310;52.198;5.422;2024-02-15T05:28:32;101361.13;;;11.38;100.00
64844;BME280;51310;52.198;5.422;2024-02-15T05:31:19;101356.75;;;11.37;100.00
64844;BME280;51310;52.198;5.422;2024-02-15T05:33:53;101361.13;;;11.38;100.00
64844;BME280;51310;52.198;5.422;2024-02-15T05:36:21;101361.91;;;11.40;100.00
64844;BME280;51310;52.198;5.422;2024-02-15T05:38:51;101345.66;;;11.43;100.00
64844;BME280;51310;52.198;5.422;2024-02-15T05:41:19;101338.59;;;11.42;100.00
64844;BME280;51310;52.198;5.422;2024-02-15T05:43:47;101317.38;;;11.39;100.00
64844;BME280;51310;52.198;5.422;2024-02-15T05:46:20;101300.53;;;11.37;100.00
64844;BME280;51310;52.198;5.422;2024-02-15T05:48:49;101294.16;;;11.40;100.00
64844;BME280;51310;52.198;5.422;2024-02-15T05:51:17;101287.16;;;11.37;100.00
64844;BME280;51310;52.198;5.422;2024-02-15T05:53:43;101287.16;;;11.37;100.00
64844;BME280;51310;52.198;5.422;2024-02-15T05:56:09;101288.88;;;11.38;100.00
64844;BME280;51310;52.198;5.422;2024-02-15T05:58:36;101288.09;;;11.36;100.00
64844;BME280;51310;52.198;5.422;2024-02-15T06:01:04;101295.34;;;11.34;100.00
64844;BME280;51310;52.198;5.422;2024-02-15T06:03:34;101294.56;;;11.32;100.00
64844;BME280;51310;52.198;5.422;2024-02-15T06:06:04;101278.72;;;11.29;100.00
64844;BME280;51310;52.198;5.422;2024-02-15T06:08:34;101288.88;;;11.38;100.00
64844;BME280;51310;52.198;5.422;2024-02-15T06:11:01;101292.00;;;11.31;100.00
64844;BME280;51310;52.198;5.422;2024-02-15T06:13:28;101298.63;;;11.39;100.00
64844;BME280;51310;52.198;5.422;2024-02-15T06:15:54;101301.66;;;11.33;100.00
64844;BME280;51310;52.198;5.422;2024-02-15T06:18:20;101310.97;;;11.42;100.00
64844;BME280;51310;52.198;5.422;2024-02-15T06:20:53;101310.09;;;11.41;100.00
64844;BME280;51310;52.198;5.422;2024-02-15T06:23:20;101295.47;;;11.33;100.00
64844;BME280;51310;52.198;5.422;2024-02-15T06:25:47;101295.34;;;11.34;100.00
64844;BME280;51310;52.198;5.422;2024-02-15T06:28:16;101324.25;;;11.43;100.00
64844;BME280;51310;52.198;5.422;2024-02-15T06:31:10;101311.31;;;11.36;100.00
64844;BME280;51310;52.198;5.422;2024-02-15T06:33:56;101306.81;;;11.36;100.00
64844;BME280;51310;52.198;5.422;2024-02-15T06:36:47;101314.44;;;11.44;100.00
64844;BME280;51310;52.198;5.422;2024-02-15T06:39:37;101290.59;;;11.39;100.00
64844;BME280;51310;52.198;5.422;2024-02-15T06:42:04;101288.50;;;11.44;100.00
64844;BME280;51310;52.198;5.422;2024-02-15T06:44:30;101304.50;;;11.46;100.00
64844;BME280;51310;52.198;5.422;2024-02-15T06:46:56;101322.19;;;11.49;100.00
64844;BME280;51310;52.198;5.422;2024-02-15T06:49:23;101313.38;;;11.46;100.00
64844;BME280;51310;52.198;5.422;2024-02-15T06:51:51;101293.09;;;11.42;100.00
64844;BME280;51310;52.198;5.422;2024-02-15T06:54:17;101298.25;;;11.45;100.00
64844;BME280;51310;52.198;5.422;2024-02-15T06:56:46;101288.50;;;11.44;100.00
64844;BME280;51310;52.198;5.422;2024-02-15T06:59:13;101277.13;;;11.41;100.00
64844;BME280;51310;52.198;5.422;2024-02-15T07:01:41;101289.28;;;11.46;100.00
64844;BME280;51310;52.198;5.422;2024-02-15T07:04:08;101297.31;;;11.46;100.00
64844;BME280;51310;52.198;5.422;2024-02-15T07:06:38;101285.06;;;11.42;100.00
64844;BME280;51310;52.198;5.422;2024-02-15T07:09:05;101301.13;;;11.42;100.00
64844;BME280;51310;52.198;5.422;2024-02-15T07:11:33;101311.63;;;11.45;100.00
64844;BME280;51310;52.198;5.422;2024-02-15T07:14:01;101308.19;;;11.43;100.00
64844;BME280;51310;52.198;5.422;2024-02-15T07:16:27;101306.75;;;11.38;100.00
64844;BME280;51310;52.198;5.422;2024-02-15T07:18:53;101328.38;;;11.49;100.00
64844;BME280;51310;52.198;5.422;2024-02-15T07:21:22;101320.34;;;11.49;100.00
64844;BME280;51310;52.198;5.422;2024-02-15T07:23:56;101308.78;;;11.49;100.00
64844;BME280;51310;52.198;5.422;2024-02-15T07:26:23;101303.53;;;11.47;100.00
64844;BME280;51310;52.198;5.422;2024-02-15T07:28:59;101321.47;;;11.45;100.00
64844;BME280;51310;52.198;5.422;2024-02-15T07:31:29;101322.44;;;11.44;100.00
64844;BME280;51310;52.198;5.422;2024-02-15T07:33:55;101329.44;;;11.46;100.00
64844;BME280;51310;52.198;5.422;2024-02-15T07:36:22;101335.63;;;11.47;100.00
64844;BME280;51310;52.198;5.422;2024-02-15T07:38:53;101356.19;;;11.46;100.00
64844;BME280;51310;52.198;5.422;2024-02-15T07:41:21;101349.03;;;11.47;100.00
64844;BME280;51310;52.198;5.422;2024-02-15T07:43:48;101350.66;;;11.50;100.00
64844;BME280;51310;52.198;5.422;2024-02-15T07:46:16;101334.78;;;11.46;100.00
64844;BME280;51310;52.198;5.422;2024-02-15T07:48:43;101341.19;;;11.44;100.00
64844;BME280;51310;52.198;5.422;2024-02-15T07:51:22;101338.00;;;11.37;100.00
64844;BME280;51310;52.198;5.422;2024-02-15T07:53:49;101333.25;;;11.42;100.00
64844;BME280;51310;52.198;5.422;2024-02-15T07:56:17;101344.63;;;11.46;100.00
64844;BME280;51310;52.198;5.422;2024-02-15T07:58:44;101333.31;;;11.41;100.00
64844;BME280;51310;52.198;5.422;2024-02-15T08:01:14;101334.94;;;11.43;100.00
64844;BME280;51310;52.198;5.422;2024-02-15T08:03:40;101333.03;;;11.45;100.00
64844;BME280;51310;52.198;5.422;2024-02-15T08:06:13;101311.06;;;11.40;100.00
64844;BME280;51310;52.198;5.422;2024-02-15T08:08:46;101310.97;;;11.42;100.00
64844;BME280;51310;52.198;5.422;2024-02-15T08:11:14;101317.19;;;11.42;100.00
64844;BME280;51310;52.198;5.422;2024-02-15T08:13:51;101318.13;;;11.41;100.00
64844;BME280;51310;52.198;5.422;2024-02-15T08:16:22;101313.91;;;11.37;100.00
64844;BME280;51310;52.198;5.422;2024-02-15T08:18:49;101312.69;;;11.43;100.00
64844;BME280;51310;52.198;5.422;2024-02-15T08:21:18;101319.94;;;11.41;100.00
64844;BME280;51310;52.198;5.422;2024-02-15T08:23:51;101306.47;;;11.42;100.00
64844;BME280;51310;52.198;5.422;2024-02-15T08:26:17;101324.16;;;11.45;100.00
64844;BME280;51310;52.198;5.422;2024-02-15T08:28:43;101333.03;;;11.45;100.00
64844;BME280;51310;52.198;5.422;2024-02-15T08:31:09;101324.06;;;11.46;100.00
64844;BME280;51310;52.198;5.422;2024-02-15T08:33:37;101322.34;;;11.45;100.00
64844;BME280;51310;52.198;5.422;2024-02-15T08:36:04;101292.13;;;11.43;100.00
64844;BME280;51310;52.198;5.422;2024-02-15T08:38:31;101314.22;;;11.47;100.00
64844;BME280;51310;52.198;5.422;2024-02-15T08:40:56;101314.69;;;11.39;100.00
64844;BME280;51310;52.198;5.422;2024-02-15T08:43:22;101314.50;;;11.42;100.00
64844;BME280;51310;52.198;5.422;2024-02-15T08:45:48;101303.53;;;11.47;100.00
64844;BME280;51310;52.198;5.422;2024-02-15T08:48:17;101294.91;;;11.42;100.00
64844;BME280;51310;52.198;5.422;2024-02-15T08:50:43;101282.81;;;11.51;100.00
64844;BME280;51310;52.198;5.422;2024-02-15T08:53:11;101270.34;;;11.50;100.00
64844;BME280;51310;52.198;5.422;2024-02-15T08:55:37;101268.09;;;11.58;100.00
64844;BME280;51310;52.198;5.422;2024-02-15T08:58:03;101255.66;;;11.57;100.00
64844;BME280;51310;52.198;5.422;2024-02-15T09:00:30;101253.38;;;11.65;100.00
64844;BME280;51310;52.198;5.422;2024-02-15T09:02:55;101257.75;;;11.66;100.00
64844;BME280;51310;52.198;5.422;2024-02-15T09:05:22;101263.03;;;11.67;100.00
64844;BME280;51310;52.198;5.422;2024-02-15T09:07:48;101230.28;;;11.48;100.00
64844;BME280;51310;52.198;5.422;2024-02-15T09:10:16;101275.94;;;11.75;100.00
64844;BME280;51310;52.198;5.422;2024-02-15T09:12:44;101279.59;;;11.74;100.00
64844;BME280;51310;52.198;5.422;2024-02-15T09:15:14;101275.19;;;11.73;100.00
64844;BME280;51310;52.198;5.422;2024-02-15T09:17:42;101269.34;;;11.66;100.00
64844;BME280;51310;52.198;5.422;2024-02-15T09:20:14;101286.84;;;11.72;100.00
64844;BME280;51310;52.198;5.422;2024-02-15T09:22:50;101272.13;;;11.65;100.00
64844;BME280;51310;52.198;5.422;2024-02-15T09:25:18;101259.09;;;11.59;100.00
64844;BME280;51310;52.198;5.422;2024-02-15T09:27:45;101288.75;;;11.70;100.00
64844;BME280;51310;52.198;5.422;2024-02-15T09:30:12;101276.34;;;11.69;100.00
64844;BME280;51310;52.198;5.422;2024-02-15T09:32:39;101278.53;;;11.77;100.00
64844;BME280;51310;52.198;5.422;2024-02-15T09:35:06;101280.34;;;11.76;100.00
64844;BME280;51310;52.198;5.422;2024-02-15T09:37:37;101283.03;;;11.76;100.00
64844;BME280;51310;52.198;5.422;2024-02-15T09:40:11;101267.16;;;11.73;100.00
64844;BME280;51310;52.198;5.422;2024-02-15T09:42:38;101278.25;;;11.81;100.00
64844;BME280;51310;52.198;5.422;2024-02-15T09:45:07;101272.13;;;11.79;100.00
64844;BME280;51310;52.198;5.422;2024-02-15T09:47:37;101286.97;;;11.85;100.00
64844;BME280;51310;52.198;5.422;2024-02-15T09:50:08;101292.84;;;11.92;100.00
64844;BME280;51310;52.198;5.422;2024-02-15T09:52:39;101291.09;;;11.91;100.00
64844;BME280;51310;52.198;5.422;2024-02-15T09:55:07;101296.28;;;11.94;100.00
64844;BME280;51310;52.198;5.422;2024-02-15T09:57:42;101293.50;;;11.95;100.00
64844;BME280;51310;52.198;5.422;2024-02-15T10:00:11;101289.69;;;11.99;100.00
64844;BME280;51310;52.198;5.422;2024-02-15T10:02:44;101286.91;;;12.01;100.00
64844;BME280;51310;52.198;5.422;2024-02-15T10:05:13;101284.88;;;12.04;100.00
64844;BME280;51310;52.198;5.422;2024-02-15T10:07:40;101281.34;;;12.04;100.00
64844;BME280;51310;52.198;5.422;2024-02-15T10:10:15;101293.63;;;12.08;100.00
64844;BME280;51310;52.198;5.422;2024-02-15T10:12:49;101276.97;;;12.03;100.00
64844;BME280;51310;52.198;5.422;2024-02-15T10:15:32;101284.53;;;12.11;100.00
64844;BME280;51310;52.198;5.422;2024-02-15T10:18:04;101292.28;;;12.15;100.00
64844;BME280;51310;52.198;5.422;2024-02-15T10:20:34;101289.78;;;12.12;100.00
64844;BME280;51310;52.198;5.422;2024-02-15T10:25:34;101293.25;;;12.14;100.00
64844;BME280;51310;52.198;5.422;2024-02-15T10:28:11;101282.31;;;12.17;100.00
64844;BME280;51310;52.198;5.422;2024-02-15T10:30:43;101291.59;;;12.26;100.00
64844;BME280;51310;52.198;5.422;2024-02-15T10:33:27;101274.66;;;12.25;100.00
64844;BME280;51310;52.198;5.422;2024-02-15T10:36:08;101289.09;;;12.37;100.00
64844;BME280;51310;52.198;5.422;2024-02-15T10:38:35;101278.47;;;12.36;100.00
64844;BME280;51310;52.198;5.422;2024-02-15T10:41:06;101271.03;;;12.41;100.00
64844;BME280;51310;52.198;5.422;2024-02-15T10:43:34;101275.78;;;12.50;100.00
64844;BME280;51310;52.198;5.422;2024-02-15T10:46:03;101273.00;;;12.52;100.00
64844;BME280;51310;52.198;5.422;2024-02-15T10:48:29;101275.38;;;12.56;100.00
64844;BME280;51310;52.198;5.422;2024-02-15T10:51:04;101283.41;;;12.70;100.00
64844;BME280;51310;52.198;5.422;2024-02-15T10:53:35;101277.38;;;12.67;100.00
64844;BME280;51310;52.198;5.422;2024-02-15T10:56:18;101283.41;;;12.70;100.00
64844;BME280;51310;52.198;5.422;2024-02-15T10:58:59;101279.88;;;12.70;100.00
64844;BME280;51310;52.198;5.422;2024-02-15T11:01:43;101273.31;;;12.74;100.00
64844;BME280;51310;52.198;5.422;2024-02-15T11:04:15;101275.16;;;12.74;100.00
64844;BME280;51310;52.198;5.422;2024-02-15T11:06:43;101274.38;;;12.71;100.00
64844;BME280;51310;52.198;5.422;2024-02-15T11:09:10;101265.19;;;12.76;100.00
64844;BME280;51310;52.198;5.422;2024-02-15T11:11:40;101256.34;;;12.88;100.00
64844;BME280;51310;52.198;5.422;2024-02-15T11:16:50;101261.13;;;13.10;100.00
64844;BME280;51310;52.198;5.422;2024-02-15T11:19:44;101256.19;;;13.04;100.00
64844;BME280;51310;52.198;5.422;2024-02-15T11:22:15;101259.00;;;13.15;100.00
64844;BME280;51310;52.198;5.422;2024-02-15T11:24:52;101255.13;;;13.06;100.00
64844;BME280;51310;52.198;5.422;2024-02-15T11:27:29;101267.81;;;13.17;100.00
64844;BME280;51310;52.198;5.422;2024-02-15T11:30:01;101250.59;;;13.07;100.00
64844;BME280;51310;52.198;5.422;2024-02-15T11:32:48;101240.94;;;13.04;100.00
64844;BME280;51310;52.198;5.422;2024-02-15T11:35:22;101256.44;;;13.13;100.00
64844;BME280;51310;52.198;5.422;2024-02-15T11:40:59;101252.22;;;13.09;100.00
64844;BME280;51310;52.198;5.422;2024-02-15T11:46:20;101244.00;;;13.25;100.00
64844;BME280;51310;52.198;5.422;2024-02-15T11:48:51;101228.59;;;13.29;100.00
64844;BME280;51310;52.198;5.422;2024-02-15T11:51:25;101240.41;;;13.39;100.00
64844;BME280;51310;52.198;5.422;2024-02-15T11:54:08;101233.41;;;13.37;100.00
64844;BME280;51310;52.198;5.422;2024-02-15T11:59:13;101232.03;;;13.44;100.00
64844;BME280;51310;52.198;5.422;2024-02-15T12:01:56;101221.19;;;13.45;100.00
64844;BME280;51310;52.198;5.422;2024-02-15T12:04:41;101225.50;;;13.48;100.00
64844;BME280;51310;52.198;5.422;2024-02-15T12:07:27;101216.38;;;13.63;100.00
64844;BME280;51310;52.198;5.422;2024-02-15T12:10:19;101214.84;;;13.59;100.00
64844;BME280;51310;52.198;5.422;2024-02-15T12:13:04;101221.09;;;13.60;100.00
64844;BME280;51310;52.198;5.422;2024-02-15T12:16:00;101210.78;;;13.66;100.00
64844;BME280;51310;52.198;5.422;2024-02-15T12:18:46;101202.84;;;13.65;100.00
64844;BME280;51310;52.198;5.422;2024-02-15T12:21:22;101196.50;;;13.66;100.00
64844;BME280;51310;52.198;5.422;2024-02-15T12:23:52;101199.50;;;13.74;100.00
64844;BME280;51310;52.198;5.422;2024-02-15T12:26:22;101196.50;;;13.79;100.00
64844;BME280;51310;52.198;5.422;2024-02-15T12:28:53;101178.53;;;13.79;100.00
64844;BME280;51310;52.198;5.422;2024-02-15T12:31:25;101174.34;;;13.88;100.00
64844;BME280;51310;52.198;5.422;2024-02-15T12:34:03;101173.78;;;13.95;100.00
64844;BME280;51310;52.198;5.422;2024-02-15T12:36:34;101169.50;;;13.93;100.00
64844;BME280;51310;52.198;5.422;2024-02-15T12:39:05;101171.84;;;13.98;100.00
64844;BME280;51310;52.198;5.422;2024-02-15T12:41:41;101171.31;;;13.92;100.00
64844;BME280;51310;52.198;5.422;2024-02-15T12:44:16;101174.94;;;14.04;100.00
64844;BME280;51310;52.198;5.422;2024-02-15T12:46:43;101159.91;;;14.02;100.00
64844;BME280;51310;52.198;5.422;2024-02-15T12:51:53;101151.69;;;14.16;100.00
64844;BME280;51310;52.198;5.422;2024-02-15T12:54:39;101152.16;;;14.10;100.00
64844;BME280;51310;52.198;5.422;2024-02-15T12:57:09;101158.63;;;14.31;100.00
64844;BME280;51310;52.198;5.422;2024-02-15T12:59:35;101150.91;;;14.27;100.00
64844;BME280;51310;52.198;5.422;2024-02-15T13:02:02;101142.00;;;14.26;100.00
64844;BME280;51310;52.198;5.422;2024-02-15T13:04:29;101149.94;;;14.52;100.00
64844;BME280;51310;52.198;5.422;2024-02-15T13:06:55;101153.22;;;14.57;100.00
64844;BME280;51310;52.198;5.422;2024-02-15T13:09:21;101149.06;;;14.64;100.00